sensor_id;sensor_type;location;lat;lon;timestamp;P1;durP1;ratioP1;P2;durP2;ratioP2
62990;SDS011;49084;48.204;16.202;2022-09-01T00:01:13;9.95;;;8.45;;
62990;SDS011;49084;48.204;16.202;2022-09-01T00:03:48;11.30;;;7.72;;
62990;SDS011;49084;48.204;16.202;2022-09-01T00:06:17;10.98;;;9.30;;
62990;SDS011;49084;48.204;16.202;2022-09-01T00:08:50;9.48;;;8.20;;
62990;SDS011;49084;48.204;16.202;2022-09-01T00:11:17;8.90;;;8.00;;
62990;SDS011;49084;48.204;16.202;2022-09-01T00:13:43;10.52;;;9.30;;
62990;SDS011;49084;48.204;16.202;2022-09-01T00:16:09;13.43;;;10.07;;
62990;SDS011;49084;48.204;16.202;2022-09-01T00:18:38;12.57;;;8.65;;
62990;SDS011;49084;48.204;16.202;2022-09-01T00:21:06;10.75;;;9.02;;
62990;SDS011;49084;48.204;16.202;2022-09-01T00:23:33;11.20;;;9.52;;
62990;SDS011;49084;48.204;16.202;2022-09-01T00:25:58;13.70;;;8.55;;
62990;SDS011;49084;48.204;16.202;2022-09-01T00:28:24;11.65;;;9.00;;
62990;SDS011;49084;48.204;16.202;2022-09-01T00:30:50;10.40;;;9.35;;
62990;SDS011;49084;48.204;16.202;2022-09-01T00:33:17;11.10;;;9.10;;
62990;SDS011;49084;48.204;16.202;2022-09-01T00:35:43;12.80;;;9.90;;
62990;SDS011;49084;48.204;16.202;2022-09-01T00:38:09;11.32;;;8.90;;
62990;SDS011;49084;48.204;16.202;2022-09-01T00:40:34;9.93;;;8.93;;
62990;SDS011;49084;48.204;16.202;2022-09-01T00:43:09;10.32;;;9.23;;
62990;SDS011;49084;48.204;16.202;2022-09-01T00:45:39;9.75;;;8.75;;
62990;SDS011;49084;48.204;16.202;2022-09-01T00:48:06;9.90;;;8.63;;
62990;SDS011;49084;48.204;16.202;2022-09-01T00:50:33;10.55;;;9.55;;
62990;SDS011;49084;48.204;16.202;2022-09-01T00:53:00;9.93;;;8.90;;
62990;SDS011;49084;48.204;16.202;2022-09-01T00:55:30;11.27;;;9.30;;
62990;SDS011;49084;48.204;16.202;2022-09-01T00:57:57;11.27;;;8.93;;
62990;SDS011;49084;48.204;16.202;2022-09-01T01:00:26;12.60;;;9.02;;
62990;SDS011;49084;48.204;16.202;2022-09-01T01:02:54;12.20;;;9.52;;
62990;SDS011;49084;48.204;16.202;2022-09-01T01:05:21;10.38;;;9.27;;
62990;SDS011;49084;48.204;16.202;2022-09-01T01:07:52;12.35;;;10.88;;
62990;SDS011;49084;48.204;16.202;2022-09-01T01:10:20;10.02;;;9.13;;
62990;SDS011;49084;48.204;16.202;2022-09-01T01:12:47;12.68;;;9.90;;
62990;SDS011;49084;48.204;16.202;2022-09-01T01:15:16;10.70;;;9.57;;
62990;SDS011;49084;48.204;16.202;2022-09-01T01:17:42;12.65;;;10.48;;
62990;SDS011;49084;48.204;16.202;2022-09-01T01:20:08;10.85;;;9.75;;
62990;SDS011;49084;48.204;16.202;2022-09-01T01:23:11;10.98;;;9.65;;
62990;SDS011;49084;48.204;16.202;2022-09-01T01:28:10;11.13;;;10.02;;
62990;SDS011;49084;48.204;16.202;2022-09-01T01:30:52;14.25;;;9.32;;
62990;SDS011;49084;48.204;16.202;2022-09-01T01:33:24;13.68;;;9.80;;
62990;SDS011;49084;48.204;16.202;2022-09-01T01:35:53;10.23;;;9.23;;
62990;SDS011;49084;48.204;16.202;2022-09-01T01:38:22;14.27;;;10.15;;
62990;SDS011;49084;48.204;16.202;2022-09-01T01:40:48;15.00;;;10.32;;
62990;SDS011;49084;48.204;16.202;2022-09-01T01:43:15;15.43;;;10.65;;
62990;SDS011;49084;48.204;16.202;2022-09-01T01:45:44;12.17;;;10.87;;
62990;SDS011;49084;48.204;16.202;2022-09-01T01:48:11;11.95;;;10.75;;
62990;SDS011;49084;48.204;16.202;2022-09-01T01:50:37;14.27;;;11.77;;
62990;SDS011;49084;48.204;16.202;2022-09-01T01:53:05;12.68;;;10.70;;
62990;SDS011;49084;48.204;16.202;2022-09-01T01:55:32;12.77;;;11.40;;
62990;SDS011;49084;48.204;16.202;2022-09-01T01:57:58;12.07;;;10.27;;
62990;SDS011;49084;48.204;16.202;2022-09-01T02:00:26;12.27;;;9.73;;
62990;SDS011;49084;48.204;16.202;2022-09-01T02:02:54;14.70;;;10.43;;
62990;SDS011;49084;48.204;16.202;2022-09-01T02:05:22;11.48;;;10.23;;
62990;SDS011;49084;48.204;16.202;2022-09-01T02:07:56;15.43;;;10.55;;
62990;SDS011;49084;48.204;16.202;2022-09-01T02:10:27;11.38;;;10.27;;
62990;SDS011;49084;48.204;16.202;2022-09-01T02:12:55;13.10;;;10.18;;
62990;SDS011;49084;48.204;16.202;2022-09-01T02:15:27;12.20;;;9.98;;
62990;SDS011;49084;48.204;16.202;2022-09-01T02:17:53;12.18;;;9.95;;
62990;SDS011;49084;48.204;16.202;2022-09-01T02:20:24;12.70;;;10.20;;
62990;SDS011;49084;48.204;16.202;2022-09-01T02:22:53;14.05;;;10.40;;
62990;SDS011;49084;48.204;16.202;2022-09-01T02:25:20;13.55;;;10.02;;
62990;SDS011;49084;48.204;16.202;2022-09-01T02:27:47;10.55;;;9.45;;
62990;SDS011;49084;48.204;16.202;2022-09-01T02:30:16;12.00;;;9.45;;
62990;SDS011;49084;48.204;16.202;2022-09-01T02:32:42;10.32;;;9.30;;
62990;SDS011;49084;48.204;16.202;2022-09-01T02:35:07;12.40;;;9.73;;
62990;SDS011;49084;48.204;16.202;2022-09-01T02:37:34;12.07;;;10.00;;
62990;SDS011;49084;48.204;16.202;2022-09-01T02:40:03;10.35;;;9.25;;
62990;SDS011;49084;48.204;16.202;2022-09-01T02:42:30;12.65;;;9.88;;
62990;SDS011;49084;48.204;16.202;2022-09-01T02:44:56;13.10;;;9.70;;
62990;SDS011;49084;48.204;16.202;2022-09-01T02:47:22;9.98;;;9.07;;
62990;SDS011;49084;48.204;16.202;2022-09-01T02:52:17;15.48;;;9.85;;
62990;SDS011;49084;48.204;16.202;2022-09-01T02:54:45;11.68;;;8.98;;
62990;SDS011;49084;48.204;16.202;2022-09-01T02:57:13;12.90;;;9.70;;
62990;SDS011;49084;48.204;16.202;2022-09-01T02:59:39;9.85;;;8.85;;
62990;SDS011;49084;48.204;16.202;2022-09-01T03:02:06;10.30;;;8.38;;
62990;SDS011;49084;48.204;16.202;2022-09-01T03:04:32;11.13;;;9.38;;
62990;SDS011;49084;48.204;16.202;2022-09-01T03:06:59;11.75;;;8.70;;
62990;SDS011;49084;48.204;16.202;2022-09-01T03:09:29;10.95;;;9.07;;
62990;SDS011;49084;48.204;16.202;2022-09-01T03:11:56;8.50;;;7.70;;
62990;SDS011;49084;48.204;16.202;2022-09-01T03:14:22;9.75;;;8.68;;
62990;SDS011;49084;48.204;16.202;2022-09-01T03:16:49;9.35;;;8.43;;
62990;SDS011;49084;48.204;16.202;2022-09-01T03:19:16;13.40;;;7.85;;
62990;SDS011;49084;48.204;16.202;2022-09-01T03:21:43;12.93;;;7.40;;
62990;SDS011;49084;48.204;16.202;2022-09-01T03:24:10;9.55;;;8.38;;
62990;SDS011;49084;48.204;16.202;2022-09-01T03:29:05;7.93;;;7.22;;
62990;SDS011;49084;48.204;16.202;2022-09-01T03:31:30;8.88;;;7.97;;
62990;SDS011;49084;48.204;16.202;2022-09-01T03:33:56;9.95;;;8.07;;
62990;SDS011;49084;48.204;16.202;2022-09-01T03:36:24;12.95;;;7.40;;
62990;SDS011;49084;48.204;16.202;2022-09-01T03:38:51;11.65;;;7.70;;
62990;SDS011;49084;48.204;16.202;2022-09-01T03:41:18;8.48;;;7.40;;
62990;SDS011;49084;48.204;16.202;2022-09-01T03:43:46;8.82;;;7.85;;
62990;SDS011;49084;48.204;16.202;2022-09-01T03:46:12;8.88;;;7.15;;
62990;SDS011;49084;48.204;16.202;2022-09-01T03:48:49;9.90;;;7.25;;
62990;SDS011;49084;48.204;16.202;2022-09-01T03:51:17;8.68;;;7.47;;
62990;SDS011;49084;48.204;16.202;2022-09-01T03:53:45;7.93;;;7.13;;
62990;SDS011;49084;48.204;16.202;2022-09-01T03:56:11;9.93;;;6.95;;
62990;SDS011;49084;48.204;16.202;2022-09-01T03:58:37;10.15;;;7.50;;
62990;SDS011;49084;48.204;16.202;2022-09-01T04:01:03;8.93;;;6.68;;
62990;SDS011;49084;48.204;16.202;2022-09-01T04:03:30;8.75;;;7.60;;
62990;SDS011;49084;48.204;16.202;2022-09-01T04:05:58;10.65;;;7.00;;
62990;SDS011;49084;48.204;16.202;2022-09-01T04:08:26;10.10;;;7.40;;
62990;SDS011;49084;48.204;16.202;2022-09-01T04:10:55;10.40;;;6.85;;
62990;SDS011;49084;48.204;16.202;2022-09-01T04:15:52;7.68;;;6.20;;
62990;SDS011;49084;48.204;16.202;2022-09-01T04:18:17;7.18;;;6.20;;
62990;SDS011;49084;48.204;16.202;2022-09-01T04:20:56;6.88;;;6.10;;
62990;SDS011;49084;48.204;16.202;2022-09-01T04:23:29;6.80;;;6.13;;
62990;SDS011;49084;48.204;16.202;2022-09-01T04:26:10;11.05;;;5.95;;
62990;SDS011;49084;48.204;16.202;2022-09-01T04:28:56;9.65;;;5.85;;
62990;SDS011;49084;48.204;16.202;2022-09-01T04:31:22;9.48;;;6.28;;
62990;SDS011;49084;48.204;16.202;2022-09-01T04:33:49;8.77;;;5.75;;
62990;SDS011;49084;48.204;16.202;2022-09-01T04:36:27;5.95;;;5.32;;
62990;SDS011;49084;48.204;16.202;2022-09-01T04:38:58;7.45;;;4.78;;
62990;SDS011;49084;48.204;16.202;2022-09-01T04:41:27;6.63;;;4.93;;
62990;SDS011;49084;48.204;16.202;2022-09-01T04:43:56;5.45;;;4.88;;
62990;SDS011;49084;48.204;16.202;2022-09-01T04:46:23;9.30;;;4.70;;
62990;SDS011;49084;48.204;16.202;2022-09-01T04:48:53;4.80;;;4.40;;
62990;SDS011;49084;48.204;16.202;2022-09-01T04:51:20;6.80;;;4.10;;
62990;SDS011;49084;48.204;16.202;2022-09-01T04:53:46;7.28;;;4.50;;
62990;SDS011;49084;48.204;16.202;2022-09-01T04:56:18;5.55;;;4.07;;
62990;SDS011;49084;48.204;16.202;2022-09-01T04:58:47;5.40;;;4.07;;
62990;SDS011;49084;48.204;16.202;2022-09-01T05:01:18;6.05;;;4.60;;
62990;SDS011;49084;48.204;16.202;2022-09-01T05:03:46;6.47;;;4.30;;
62990;SDS011;49084;48.204;16.202;2022-09-01T05:06:20;4.68;;;3.30;;
62990;SDS011;49084;48.204;16.202;2022-09-01T05:08:47;6.32;;;4.20;;
62990;SDS011;49084;48.204;16.202;2022-09-01T05:11:14;4.47;;;3.40;;
62990;SDS011;49084;48.204;16.202;2022-09-01T05:13:45;4.70;;;4.00;;
62990;SDS011;49084;48.204;16.202;2022-09-01T05:16:13;4.43;;;3.78;;
62990;SDS011;49084;48.204;16.202;2022-09-01T05:18:43;8.02;;;3.85;;
62990;SDS011;49084;48.204;16.202;2022-09-01T05:21:15;9.73;;;3.92;;
62990;SDS011;49084;48.204;16.202;2022-09-01T05:23:43;5.87;;;3.33;;
62990;SDS011;49084;48.204;16.202;2022-09-01T05:26:14;4.20;;;3.58;;
62990;SDS011;49084;48.204;16.202;2022-09-01T05:29:03;3.20;;;2.90;;
62990;SDS011;49084;48.204;16.202;2022-09-01T05:31:34;4.32;;;3.05;;
62990;SDS011;49084;48.204;16.202;2022-09-01T05:34:02;5.03;;;3.42;;
62990;SDS011;49084;48.204;16.202;2022-09-01T05:36:29;6.32;;;2.90;;
62990;SDS011;49084;48.204;16.202;2022-09-01T05:38:58;7.03;;;3.38;;
62990;SDS011;49084;48.204;16.202;2022-09-01T05:41:26;4.68;;;2.80;;
62990;SDS011;49084;48.204;16.202;2022-09-01T05:43:52;3.70;;;3.08;;
62990;SDS011;49084;48.204;16.202;2022-09-01T05:46:23;4.30;;;3.15;;
62990;SDS011;49084;48.204;16.202;2022-09-01T05:48:52;5.97;;;2.78;;
62990;SDS011;49084;48.204;16.202;2022-09-01T05:51:21;4.07;;;2.50;;
62990;SDS011;49084;48.204;16.202;2022-09-01T05:53:51;2.55;;;2.33;;
62990;SDS011;49084;48.204;16.202;2022-09-01T05:56:20;3.65;;;1.98;;
62990;SDS011;49084;48.204;16.202;2022-09-01T05:58:46;3.65;;;1.90;;
62990;SDS011;49084;48.204;16.202;2022-09-01T06:01:16;7.00;;;3.45;;
62990;SDS011;49084;48.204;16.202;2022-09-01T06:03:49;4.30;;;2.08;;
62990;SDS011;49084;48.204;16.202;2022-09-01T06:06:18;4.47;;;1.50;;
62990;SDS011;49084;48.204;16.202;2022-09-01T06:08:52;6.53;;;1.70;;
62990;SDS011;49084;48.204;16.202;2022-09-01T06:11:23;3.42;;;1.63;;
62990;SDS011;49084;48.204;16.202;2022-09-01T06:13:50;1.85;;;1.60;;
62990;SDS011;49084;48.204;16.202;2022-09-01T06:16:20;5.68;;;1.75;;
62990;SDS011;49084;48.204;16.202;2022-09-01T06:18:47;2.35;;;1.90;;
62990;SDS011;49084;48.204;16.202;2022-09-01T06:21:14;3.42;;;1.92;;
62990;SDS011;49084;48.204;16.202;2022-09-01T06:23:41;2.88;;;1.20;;
62990;SDS011;49084;48.204;16.202;2022-09-01T06:26:18;3.60;;;1.20;;
62990;SDS011;49084;48.204;16.202;2022-09-01T06:28:47;2.08;;;1.10;;
62990;SDS011;49084;48.204;16.202;2022-09-01T06:31:14;4.43;;;1.63;;
62990;SDS011;49084;48.204;16.202;2022-09-01T06:33:41;2.95;;;1.25;;
62990;SDS011;49084;48.204;16.202;2022-09-01T06:36:07;6.28;;;1.70;;
62990;SDS011;49084;48.204;16.202;2022-09-01T06:38:33;3.03;;;1.20;;
62990;SDS011;49084;48.204;16.202;2022-09-01T06:41:04;2.10;;;1.30;;
62990;SDS011;49084;48.204;16.202;2022-09-01T06:43:37;1.70;;;1.17;;
62990;SDS011;49084;48.204;16.202;2022-09-01T06:46:05;5.28;;;1.40;;
62990;SDS011;49084;48.204;16.202;2022-09-01T06:48:33;2.15;;;1.35;;
62990;SDS011;49084;48.204;16.202;2022-09-01T06:51:04;1.55;;;1.38;;
62990;SDS011;49084;48.204;16.202;2022-09-01T06:53:33;3.80;;;1.83;;
62990;SDS011;49084;48.204;16.202;2022-09-01T06:55:59;1.08;;;1.00;;
62990;SDS011;49084;48.204;16.202;2022-09-01T06:58:24;3.22;;;1.13;;
62990;SDS011;49084;48.204;16.202;2022-09-01T07:00:50;2.78;;;1.20;;
62990;SDS011;49084;48.204;16.202;2022-09-01T07:03:16;2.92;;;1.48;;
62990;SDS011;49084;48.204;16.202;2022-09-01T07:05:44;5.78;;;1.20;;
62990;SDS011;49084;48.204;16.202;2022-09-01T07:08:13;1.38;;;1.25;;
62990;SDS011;49084;48.204;16.202;2022-09-01T07:10:46;1.50;;;1.00;;
62990;SDS011;49084;48.204;16.202;2022-09-01T07:13:14;1.90;;;1.27;;
62990;SDS011;49084;48.204;16.202;2022-09-01T07:15:43;7.07;;;1.20;;
62990;SDS011;49084;48.204;16.202;2022-09-01T07:18:12;6.75;;;2.13;;
62990;SDS011;49084;48.204;16.202;2022-09-01T07:20:39;1.17;;;0.95;;
62990;SDS011;49084;48.204;16.202;2022-09-01T07:23:06;2.35;;;1.10;;
62990;SDS011;49084;48.204;16.202;2022-09-01T07:25:33;3.63;;;0.98;;
62990;SDS011;49084;48.204;16.202;2022-09-01T07:28:03;1.77;;;1.00;;
62990;SDS011;49084;48.204;16.202;2022-09-01T07:30:29;3.05;;;0.95;;
62990;SDS011;49084;48.204;16.202;2022-09-01T07:32:57;3.20;;;0.70;;
62990;SDS011;49084;48.204;16.202;2022-09-01T07:35:23;1.60;;;0.90;;
62990;SDS011;49084;48.204;16.202;2022-09-01T07:37:49;5.10;;;1.00;;
62990;SDS011;49084;48.204;16.202;2022-09-01T07:40:16;3.42;;;0.80;;
62990;SDS011;49084;48.204;16.202;2022-09-01T07:42:45;1.52;;;0.65;;
62990;SDS011;49084;48.204;16.202;2022-09-01T07:45:12;4.28;;;0.90;;
62990;SDS011;49084;48.204;16.202;2022-09-01T07:47:39;1.75;;;0.90;;
62990;SDS011;49084;48.204;16.202;2022-09-01T07:50:07;2.00;;;0.90;;
62990;SDS011;49084;48.204;16.202;2022-09-01T07:52:36;4.35;;;1.10;;
62990;SDS011;49084;48.204;16.202;2022-09-01T07:55:07;2.55;;;0.88;;
62990;SDS011;49084;48.204;16.202;2022-09-01T07:57:36;2.42;;;0.90;;
62990;SDS011;49084;48.204;16.202;2022-09-01T08:00:03;3.00;;;0.75;;
62990;SDS011;49084;48.204;16.202;2022-09-01T08:02:30;1.48;;;0.90;;
62990;SDS011;49084;48.204;16.202;2022-09-01T08:04:57;3.25;;;0.73;;
62990;SDS011;49084;48.204;16.202;2022-09-01T08:07:23;2.15;;;0.60;;
62990;SDS011;49084;48.204;16.202;2022-09-01T08:09:49;2.88;;;0.70;;
62990;SDS011;49084;48.204;16.202;2022-09-01T08:12:15;2.65;;;0.63;;
62990;SDS011;49084;48.204;16.202;2022-09-01T08:14:41;4.47;;;0.80;;
62990;SDS011;49084;48.204;16.202;2022-09-01T08:17:07;4.45;;;0.60;;
62990;SDS011;49084;48.204;16.202;2022-09-01T08:19:32;2.85;;;1.38;;
62990;SDS011;49084;48.204;16.202;2022-09-01T08:21:58;3.10;;;0.85;;
62990;SDS011;49084;48.204;16.202;2022-09-01T08:24:25;1.33;;;0.73;;
62990;SDS011;49084;48.204;16.202;2022-09-01T08:26:50;0.98;;;0.60;;
62990;SDS011;49084;48.204;16.202;2022-09-01T08:29:16;1.27;;;0.47;;
62990;SDS011;49084;48.204;16.202;2022-09-01T08:31:42;2.95;;;0.90;;
62990;SDS011;49084;48.204;16.202;2022-09-01T08:34:07;2.25;;;0.60;;
62990;SDS011;49084;48.204;16.202;2022-09-01T08:39:02;2.72;;;0.70;;
62990;SDS011;49084;48.204;16.202;2022-09-01T08:44:53;1.80;;;0.85;;
62990;SDS011;49084;48.204;16.202;2022-09-01T08:47:35;2.03;;;0.80;;
62990;SDS011;49084;48.204;16.202;2022-09-01T08:50:02;1.25;;;0.70;;
62990;SDS011;49084;48.204;16.202;2022-09-01T08:52:33;2.95;;;0.77;;
62990;SDS011;49084;48.204;16.202;2022-09-01T08:55:15;2.42;;;0.50;;
62990;SDS011;49084;48.204;16.202;2022-09-01T08:57:45;0.95;;;0.50;;
62990;SDS011;49084;48.204;16.202;2022-09-01T09:00:16;1.55;;;0.80;;
62990;SDS011;49084;48.204;16.202;2022-09-01T09:16:17;2.72;;;0.63;;
62990;SDS011;49084;48.204;16.202;2022-09-01T09:19:02;1.45;;;0.57;;
62990;SDS011;49084;48.204;16.202;2022-09-01T09:21:47;1.48;;;0.70;;
62990;SDS011;49084;48.204;16.202;2022-09-01T09:24:18;1.20;;;0.50;;
62990;SDS011;49084;48.204;16.202;2022-09-01T09:26:57;1.48;;;0.57;;
62990;SDS011;49084;48.204;16.202;2022-09-01T09:29:24;0.93;;;0.50;;
62990;SDS011;49084;48.204;16.202;2022-09-01T09:32:04;3.58;;;1.08;;
62990;SDS011;49084;48.204;16.202;2022-09-01T09:34:37;0.57;;;0.43;;
62990;SDS011;49084;48.204;16.202;2022-09-01T09:37:22;2.88;;;0.65;;
62990;SDS011;49084;48.204;16.202;2022-09-01T09:40:00;1.55;;;0.50;;
62990;SDS011;49084;48.204;16.202;2022-09-01T09:42:38;2.75;;;0.70;;
62990;SDS011;49084;48.204;16.202;2022-09-01T09:45:20;2.15;;;0.68;;
62990;SDS011;49084;48.204;16.202;2022-09-01T09:47:45;1.42;;;0.38;;
62990;SDS011;49084;48.204;16.202;2022-09-01T09:52:47;1.85;;;0.63;;
62990;SDS011;49084;48.204;16.202;2022-09-01T09:55:21;2.35;;;0.47;;
62990;SDS011;49084;48.204;16.202;2022-09-01T09:57:50;1.00;;;0.60;;
62990;SDS011;49084;48.204;16.202;2022-09-01T10:05:44;1.17;;;0.65;;
62990;SDS011;49084;48.204;16.202;2022-09-01T10:10:52;1.42;;;0.70;;
62990;SDS011;49084;48.204;16.202;2022-09-01T10:13:19;2.17;;;0.70;;
62990;SDS011;49084;48.204;16.202;2022-09-01T10:18:18;1.33;;;0.77;;
62990;SDS011;49084;48.204;16.202;2022-09-01T10:20:53;4.72;;;0.85;;
62990;SDS011;49084;48.204;16.202;2022-09-01T10:23:45;6.65;;;0.65;;
62990;SDS011;49084;48.204;16.202;2022-09-01T10:26:18;3.88;;;0.60;;
62990;SDS011;49084;48.204;16.202;2022-09-01T10:29:07;0.98;;;0.50;;
62990;SDS011;49084;48.204;16.202;2022-09-01T10:32:00;1.45;;;0.60;;
62990;SDS011;49084;48.204;16.202;2022-09-01T10:34:32;1.02;;;0.60;;
62990;SDS011;49084;48.204;16.202;2022-09-01T10:37:01;2.70;;;0.73;;
62990;SDS011;49084;48.204;16.202;2022-09-01T10:39:29;3.03;;;0.77;;
62990;SDS011;49084;48.204;16.202;2022-09-01T10:41:59;1.55;;;0.60;;
62990;SDS011;49084;48.204;16.202;2022-09-01T10:44:54;3.85;;;0.70;;
62990;SDS011;49084;48.204;16.202;2022-09-01T10:47:28;1.95;;;0.55;;
62990;SDS011;49084;48.204;16.202;2022-09-01T10:55:16;5.80;;;0.75;;
62990;SDS011;49084;48.204;16.202;2022-09-01T10:57:50;4.30;;;0.82;;
62990;SDS011;49084;48.204;16.202;2022-09-01T11:08:22;4.10;;;0.60;;
62990;SDS011;49084;48.204;16.202;2022-09-01T11:13:55;1.60;;;0.60;;
62990;SDS011;49084;48.204;16.202;2022-09-01T11:16:30;4.72;;;0.82;;
62990;SDS011;49084;48.204;16.202;2022-09-01T11:22:08;0.80;;;0.30;;
62990;SDS011;49084;48.204;16.202;2022-09-01T11:27:09;3.67;;;0.57;;
62990;SDS011;49084;48.204;16.202;2022-09-01T11:32:19;1.55;;;0.30;;
62990;SDS011;49084;48.204;16.202;2022-09-01T11:34:49;2.33;;;0.40;;
62990;SDS011;49084;48.204;16.202;2022-09-01T11:37:19;1.30;;;0.43;;
62990;SDS011;49084;48.204;16.202;2022-09-01T11:39:48;1.50;;;0.40;;
62990;SDS011;49084;48.204;16.202;2022-09-01T11:45:27;0.75;;;0.40;;
62990;SDS011;49084;48.204;16.202;2022-09-01T11:48:01;3.33;;;0.63;;
62990;SDS011;49084;48.204;16.202;2022-09-01T11:50:34;1.38;;;0.88;;
62990;SDS011;49084;48.204;16.202;2022-09-01T11:55:39;0.77;;;0.53;;
62990;SDS011;49084;48.204;16.202;2022-09-01T11:58:09;2.92;;;0.55;;
62990;SDS011;49084;48.204;16.202;2022-09-01T12:00:53;3.88;;;0.30;;
62990;SDS011;49084;48.204;16.202;2022-09-01T12:05:53;2.58;;;0.40;;
62990;SDS011;49084;48.204;16.202;2022-09-01T12:08:23;2.67;;;0.32;;
62990;SDS011;49084;48.204;16.202;2022-09-01T12:11:01;0.87;;;0.40;;
62990;SDS011;49084;48.204;16.202;2022-09-01T12:13:28;22.40;;;5.97;;
62990;SDS011;49084;48.204;16.202;2022-09-01T12:18:24;8.13;;;1.83;;
62990;SDS011;49084;48.204;16.202;2022-09-01T12:23:28;4.72;;;1.08;;
62990;SDS011;49084;48.204;16.202;2022-09-01T12:25:57;1.20;;;0.57;;
62990;SDS011;49084;48.204;16.202;2022-09-01T12:28:33;1.77;;;0.70;;
62990;SDS011;49084;48.204;16.202;2022-09-01T12:31:00;2.50;;;0.88;;
62990;SDS011;49084;48.204;16.202;2022-09-01T12:33:29;3.30;;;0.40;;
62990;SDS011;49084;48.204;16.202;2022-09-01T12:38:48;1.48;;;0.40;;
62990;SDS011;49084;48.204;16.202;2022-09-01T12:46:51;3.40;;;0.50;;
62990;SDS011;49084;48.204;16.202;2022-09-01T12:49:37;5.40;;;0.43;;
62990;SDS011;49084;48.204;16.202;2022-09-01T12:52:26;1.93;;;0.50;;
62990;SDS011;49084;48.204;16.202;2022-09-01T13:00:04;1.15;;;0.40;;
62990;SDS011;49084;48.204;16.202;2022-09-01T13:02:40;3.08;;;0.85;;
62990;SDS011;49084;48.204;16.202;2022-09-01T13:07:48;3.60;;;0.25;;
62990;SDS011;49084;48.204;16.202;2022-09-01T13:10:16;2.28;;;0.47;;
62990;SDS011;49084;48.204;16.202;2022-09-01T13:12:42;1.52;;;0.60;;
62990;SDS011;49084;48.204;16.202;2022-09-01T13:15:09;2.25;;;0.50;;
62990;SDS011;49084;48.204;16.202;2022-09-01T13:17:36;1.40;;;0.57;;
62990;SDS011;49084;48.204;16.202;2022-09-01T13:20:03;0.82;;;0.32;;
62990;SDS011;49084;48.204;16.202;2022-09-01T13:22:29;3.00;;;0.22;;
62990;SDS011;49084;48.204;16.202;2022-09-01T13:24:55;0.90;;;0.40;;
62990;SDS011;49084;48.204;16.202;2022-09-01T13:27:21;5.97;;;0.40;;
62990;SDS011;49084;48.204;16.202;2022-09-01T13:29:47;1.00;;;0.40;;
62990;SDS011;49084;48.204;16.202;2022-09-01T13:32:14;0.52;;;0.30;;
62990;SDS011;49084;48.204;16.202;2022-09-01T13:34:41;0.93;;;0.50;;
62990;SDS011;49084;48.204;16.202;2022-09-01T13:37:07;1.67;;;0.50;;
62990;SDS011;49084;48.204;16.202;2022-09-01T13:39:32;2.58;;;0.68;;
62990;SDS011;49084;48.204;16.202;2022-09-01T13:41:58;4.03;;;0.40;;
62990;SDS011;49084;48.204;16.202;2022-09-01T13:44:24;1.13;;;0.30;;
62990;SDS011;49084;48.204;16.202;2022-09-01T13:46:49;1.85;;;0.43;;
62990;SDS011;49084;48.204;16.202;2022-09-01T13:49:15;0.38;;;0.30;;
62990;SDS011;49084;48.204;16.202;2022-09-01T13:51:41;1.38;;;0.30;;
62990;SDS011;49084;48.204;16.202;2022-09-01T13:54:06;1.58;;;0.40;;
62990;SDS011;49084;48.204;16.202;2022-09-01T13:56:32;1.48;;;0.40;;
62990;SDS011;49084;48.204;16.202;2022-09-01T13:58:59;3.92;;;0.25;;
62990;SDS011;49084;48.204;16.202;2022-09-01T14:01:25;0.65;;;0.30;;
62990;SDS011;49084;48.204;16.202;2022-09-01T14:03:50;2.35;;;0.40;;
62990;SDS011;49084;48.204;16.202;2022-09-01T14:06:16;0.40;;;0.30;;
62990;SDS011;49084;48.204;16.202;2022-09-01T14:08:42;1.05;;;0.30;;
62990;SDS011;49084;48.204;16.202;2022-09-01T14:11:14;1.25;;;0.43;;
62990;SDS011;49084;48.204;16.202;2022-09-01T14:13:43;0.65;;;0.40;;
62990;SDS011;49084;48.204;16.202;2022-09-01T14:16:13;0.70;;;0.20;;
62990;SDS011;49084;48.204;16.202;2022-09-01T14:18:39;0.68;;;0.28;;
62990;SDS011;49084;48.204;16.202;2022-09-01T14:21:09;1.45;;;0.57;;
62990;SDS011;49084;48.204;16.202;2022-09-01T14:23:39;0.60;;;0.20;;
62990;SDS011;49084;48.204;16.202;2022-09-01T14:26:07;0.70;;;0.13;;
62990;SDS011;49084;48.204;16.202;2022-09-01T14:28:35;3.38;;;0.60;;
62990;SDS011;49084;48.204;16.202;2022-09-01T14:31:06;0.50;;;0.20;;
62990;SDS011;49084;48.204;16.202;2022-09-01T14:33:40;0.32;;;0.28;;
62990;SDS011;49084;48.204;16.202;2022-09-01T14:36:08;2.35;;;0.28;;
62990;SDS011;49084;48.204;16.202;2022-09-01T14:38:40;3.42;;;0.28;;
62990;SDS011;49084;48.204;16.202;2022-09-01T14:41:05;0.95;;;0.50;;
62990;SDS011;49084;48.204;16.202;2022-09-01T14:43:31;2.25;;;0.40;;
62990;SDS011;49084;48.204;16.202;2022-09-01T14:46:04;1.38;;;0.17;;
62990;SDS011;49084;48.204;16.202;2022-09-01T14:48:33;0.68;;;0.30;;
62990;SDS011;49084;48.204;16.202;2022-09-01T14:50:59;2.33;;;0.30;;
62990;SDS011;49084;48.204;16.202;2022-09-01T14:53:26;2.92;;;0.30;;
62990;SDS011;49084;48.204;16.202;2022-09-01T14:55:53;2.17;;;0.22;;
62990;SDS011;49084;48.204;16.202;2022-09-01T14:58:20;0.30;;;0.20;;
62990;SDS011;49084;48.204;16.202;2022-09-01T15:00:45;1.95;;;0.20;;
62990;SDS011;49084;48.204;16.202;2022-09-01T15:03:11;0.63;;;0.20;;
62990;SDS011;49084;48.204;16.202;2022-09-01T15:05:38;1.52;;;0.20;;
62990;SDS011;49084;48.204;16.202;2022-09-01T15:08:04;0.40;;;0.32;;
62990;SDS011;49084;48.204;16.202;2022-09-01T15:10:32;0.70;;;0.50;;
62990;SDS011;49084;48.204;16.202;2022-09-01T15:12:59;2.40;;;0.60;;
62990;SDS011;49084;48.204;16.202;2022-09-01T15:15:25;0.28;;;0.20;;
62990;SDS011;49084;48.204;16.202;2022-09-01T15:17:52;2.83;;;0.38;;
62990;SDS011;49084;48.204;16.202;2022-09-01T15:20:19;1.10;;;0.40;;
62990;SDS011;49084;48.204;16.202;2022-09-01T15:23:03;1.40;;;0.30;;
62990;SDS011;49084;48.204;16.202;2022-09-01T15:25:30;1.00;;;0.28;;
62990;SDS011;49084;48.204;16.202;2022-09-01T15:27:55;2.03;;;0.40;;
62990;SDS011;49084;48.204;16.202;2022-09-01T15:30:21;1.60;;;0.40;;
62990;SDS011;49084;48.204;16.202;2022-09-01T15:32:48;0.77;;;0.45;;
62990;SDS011;49084;48.204;16.202;2022-09-01T15:35:16;1.13;;;0.38;;
62990;SDS011;49084;48.204;16.202;2022-09-01T15:37:45;0.30;;;0.20;;
62990;SDS011;49084;48.204;16.202;2022-09-01T15:40:15;1.80;;;0.30;;
62990;SDS011;49084;48.204;16.202;2022-09-01T15:42:41;1.17;;;0.38;;
62990;SDS011;49084;48.204;16.202;2022-09-01T15:45:11;0.43;;;0.30;;
62990;SDS011;49084;48.204;16.202;2022-09-01T15:47:43;1.75;;;0.70;;
62990;SDS011;49084;48.204;16.202;2022-09-01T15:50:13;1.27;;;0.30;;
62990;SDS011;49084;48.204;16.202;2022-09-01T15:52:49;2.03;;;0.30;;
62990;SDS011;49084;48.204;16.202;2022-09-01T15:55:18;1.25;;;0.20;;
62990;SDS011;49084;48.204;16.202;2022-09-01T15:57:46;0.20;;;0.20;;
62990;SDS011;49084;48.204;16.202;2022-09-01T16:00:12;0.47;;;0.28;;
62990;SDS011;49084;48.204;16.202;2022-09-01T16:02:38;2.42;;;0.20;;
62990;SDS011;49084;48.204;16.202;2022-09-01T16:05:04;2.28;;;0.15;;
62990;SDS011;49084;48.204;16.202;2022-09-01T16:07:30;2.38;;;0.80;;
62990;SDS011;49084;48.204;16.202;2022-09-01T16:09:56;0.47;;;0.25;;
62990;SDS011;49084;48.204;16.202;2022-09-01T16:12:22;2.20;;;0.20;;
62990;SDS011;49084;48.204;16.202;2022-09-01T16:14:50;1.67;;;0.20;;
62990;SDS011;49084;48.204;16.202;2022-09-01T16:20:03;0.50;;;0.40;;
62990;SDS011;49084;48.204;16.202;2022-09-01T16:22:36;1.05;;;0.40;;